sensor_id;sensor_type;location;lat;lon;timestamp;P1;durP1;ratioP1;P2;durP2;ratioP2
36221;SDS011;22266;52.340;4.962;2024-02-26T00:00:25;15.00;;;13.00;;
36221;SDS011;22266;52.340;4.962;2024-02-26T00:02:52;19.00;;;13.00;;
36221;SDS011;22266;52.340;4.962;2024-02-26T00:05:18;21.75;;;15.75;;
36221;SDS011;22266;52.340;4.962;2024-02-26T00:07:45;9.50;;;9.25;;
36221;SDS011;22266;52.340;4.962;2024-02-26T00:10:13;12.25;;;10.00;;
36221;SDS011;22266;52.340;4.962;2024-02-26T00:12:40;8.00;;;8.00;;
36221;SDS011;22266;52.340;4.962;2024-02-26T00:15:07;7.50;;;5.75;;
36221;SDS011;22266;52.340;4.962;2024-02-26T00:17:35;11.50;;;9.25;;
36221;SDS011;22266;52.340;4.962;2024-02-26T00:20:04;12.00;;;10.75;;
36221;SDS011;22266;52.340;4.962;2024-02-26T00:22:35;10.50;;;9.50;;
36221;SDS011;22266;52.340;4.962;2024-02-26T00:25:02;8.50;;;8.00;;
36221;SDS011;22266;52.340;4.962;2024-02-26T00:27:28;10.50;;;9.75;;
36221;SDS011;22266;52.340;4.962;2024-02-26T00:29:55;9.00;;;8.75;;
36221;SDS011;22266;52.340;4.962;2024-02-26T00:32:22;12.25;;;12.25;;
36221;SDS011;22266;52.340;4.962;2024-02-26T00:34:48;10.50;;;10.00;;
36221;SDS011;22266;52.340;4.962;2024-02-26T00:37:15;12.00;;;11.50;;
36221;SDS011;22266;52.340;4.962;2024-02-26T00:39:41;12.00;;;10.25;;
36221;SDS011;22266;52.340;4.962;2024-02-26T00:42:08;17.75;;;16.00;;
36221;SDS011;22266;52.340;4.962;2024-02-26T00:44:35;20.00;;;17.25;;
36221;SDS011;22266;52.340;4.962;2024-02-26T00:47:01;20.50;;;15.25;;
36221;SDS011;22266;52.340;4.962;2024-02-26T00:49:28;15.25;;;13.50;;
36221;SDS011;22266;52.340;4.962;2024-02-26T00:51:55;15.00;;;15.00;;
36221;SDS011;22266;52.340;4.962;2024-02-26T00:54:22;18.75;;;17.00;;
36221;SDS011;22266;52.340;4.962;2024-02-26T00:56:49;19.50;;;13.75;;
36221;SDS011;22266;52.340;4.962;2024-02-26T00:59:15;14.50;;;12.50;;
36221;SDS011;22266;52.340;4.962;2024-02-26T01:01:42;21.50;;;15.00;;
36221;SDS011;22266;52.340;4.962;2024-02-26T01:04:09;16.50;;;15.50;;
36221;SDS011;22266;52.340;4.962;2024-02-26T01:06:36;17.25;;;12.50;;
36221;SDS011;22266;52.340;4.962;2024-02-26T01:09:02;17.50;;;16.50;;
36221;SDS011;22266;52.340;4.962;2024-02-26T01:11:29;16.75;;;15.25;;
36221;SDS011;22266;52.340;4.962;2024-02-26T01:13:56;18.25;;;15.00;;
36221;SDS011;22266;52.340;4.962;2024-02-26T01:16:23;19.50;;;18.25;;
36221;SDS011;22266;52.340;4.962;2024-02-26T01:18:50;10.75;;;10.75;;
36221;SDS011;22266;52.340;4.962;2024-02-26T01:21:17;17.25;;;12.25;;
36221;SDS011;22266;52.340;4.962;2024-02-26T01:23:43;14.25;;;13.00;;
36221;SDS011;22266;52.340;4.962;2024-02-26T01:26:10;12.75;;;12.00;;
36221;SDS011;22266;52.340;4.962;2024-02-26T01:28:37;13.00;;;13.00;;
36221;SDS011;22266;52.340;4.962;2024-02-26T01:31:04;12.75;;;12.00;;
36221;SDS011;22266;52.340;4.962;2024-02-26T01:33:33;14.25;;;10.25;;
36221;SDS011;22266;52.340;4.962;2024-02-26T01:36:00;13.50;;;11.50;;
36221;SDS011;22266;52.340;4.962;2024-02-26T01:38:27;10.50;;;9.00;;
36221;SDS011;22266;52.340;4.962;2024-02-26T01:40:54;13.00;;;11.50;;
36221;SDS011;22266;52.340;4.962;2024-02-26T01:43:20;10.25;;;10.25;;
36221;SDS011;22266;52.340;4.962;2024-02-26T01:45:47;13.50;;;13.50;;
36221;SDS011;22266;52.340;4.962;2024-02-26T01:48:14;9.00;;;9.00;;
36221;SDS011;22266;52.340;4.962;2024-02-26T01:50:41;12.50;;;12.50;;
36221;SDS011;22266;52.340;4.962;2024-02-26T01:53:08;16.00;;;15.00;;
36221;SDS011;22266;52.340;4.962;2024-02-26T01:55:36;18.25;;;15.75;;
36221;SDS011;22266;52.340;4.962;2024-02-26T01:58:06;10.50;;;9.75;;
36221;SDS011;22266;52.340;4.962;2024-02-26T02:00:33;9.50;;;9.50;;
36221;SDS011;22266;52.340;4.962;2024-02-26T02:03:01;15.25;;;13.50;;
36221;SDS011;22266;52.340;4.962;2024-02-26T02:05:29;13.00;;;12.25;;
36221;SDS011;22266;52.340;4.962;2024-02-26T02:07:57;14.25;;;11.75;;
36221;SDS011;22266;52.340;4.962;2024-02-26T02:10:23;10.00;;;9.00;;
36221;SDS011;22266;52.340;4.962;2024-02-26T02:12:52;14.50;;;11.00;;
36221;SDS011;22266;52.340;4.962;2024-02-26T02:15:19;16.00;;;12.25;;
36221;SDS011;22266;52.340;4.962;2024-02-26T02:17:46;15.50;;;14.50;;
36221;SDS011;22266;52.340;4.962;2024-02-26T02:20:17;16.50;;;15.25;;
36221;SDS011;22266;52.340;4.962;2024-02-26T02:22:45;17.25;;;12.75;;
36221;SDS011;22266;52.340;4.962;2024-02-26T02:25:12;17.50;;;14.00;;
36221;SDS011;22266;52.340;4.962;2024-02-26T02:27:39;17.25;;;16.00;;
36221;SDS011;22266;52.340;4.962;2024-02-26T02:30:07;19.50;;;17.75;;
36221;SDS011;22266;52.340;4.962;2024-02-26T02:32:35;14.25;;;12.00;;
36221;SDS011;22266;52.340;4.962;2024-02-26T02:35:06;16.25;;;13.00;;
36221;SDS011;22266;52.340;4.962;2024-02-26T02:37:33;16.75;;;14.00;;
36221;SDS011;22266;52.340;4.962;2024-02-26T02:40:00;18.00;;;16.00;;
36221;SDS011;22266;52.340;4.962;2024-02-26T02:42:26;16.50;;;15.00;;
36221;SDS011;22266;52.340;4.962;2024-02-26T02:44:53;16.50;;;15.50;;
36221;SDS011;22266;52.340;4.962;2024-02-26T02:47:20;12.00;;;9.25;;
36221;SDS011;22266;52.340;4.962;2024-02-26T02:49:46;13.50;;;13.50;;
36221;SDS011;22266;52.340;4.962;2024-02-26T02:52:13;18.75;;;14.50;;
36221;SDS011;22266;52.340;4.962;2024-02-26T02:54:39;20.00;;;17.00;;
36221;SDS011;22266;52.340;4.962;2024-02-26T02:57:06;17.00;;;14.75;;
36221;SDS011;22266;52.340;4.962;2024-02-26T02:59:33;19.25;;;14.25;;
36221;SDS011;22266;52.340;4.962;2024-02-26T03:02:00;22.25;;;20.00;;
36221;SDS011;22266;52.340;4.962;2024-02-26T03:04:27;20.75;;;19.25;;
36221;SDS011;22266;52.340;4.962;2024-02-26T03:06:53;23.50;;;17.75;;
36221;SDS011;22266;52.340;4.962;2024-02-26T03:09:20;20.00;;;16.75;;
36221;SDS011;22266;52.340;4.962;2024-02-26T03:11:47;21.75;;;14.75;;
36221;SDS011;22266;52.340;4.962;2024-02-26T03:14:13;25.25;;;21.25;;
36221;SDS011;22266;52.340;4.962;2024-02-26T03:16:40;16.75;;;15.25;;
36221;SDS011;22266;52.340;4.962;2024-02-26T03:19:07;20.50;;;19.50;;
36221;SDS011;22266;52.340;4.962;2024-02-26T03:21:34;22.75;;;18.75;;
36221;SDS011;22266;52.340;4.962;2024-02-26T03:24:01;21.50;;;18.75;;
36221;SDS011;22266;52.340;4.962;2024-02-26T03:26:27;22.00;;;17.75;;
36221;SDS011;22266;52.340;4.962;2024-02-26T03:28:54;20.75;;;18.25;;
36221;SDS011;22266;52.340;4.962;2024-02-26T03:31:21;22.25;;;19.25;;
36221;SDS011;22266;52.340;4.962;2024-02-26T03:33:48;22.00;;;19.25;;
36221;SDS011;22266;52.340;4.962;2024-02-26T03:36:14;20.25;;;17.50;;
36221;SDS011;22266;52.340;4.962;2024-02-26T03:38:42;23.50;;;19.25;;
36221;SDS011;22266;52.340;4.962;2024-02-26T03:41:09;26.00;;;21.25;;
36221;SDS011;22266;52.340;4.962;2024-02-26T03:43:35;17.00;;;16.50;;
36221;SDS011;22266;52.340;4.962;2024-02-26T03:46:02;20.00;;;18.50;;
36221;SDS011;22266;52.340;4.962;2024-02-26T03:48:29;25.25;;;18.25;;
36221;SDS011;22266;52.340;4.962;2024-02-26T03:50:55;24.50;;;21.25;;
36221;SDS011;22266;52.340;4.962;2024-02-26T03:53:22;20.00;;;16.50;;
36221;SDS011;22266;52.340;4.962;2024-02-26T03:55:48;24.75;;;20.00;;
36221;SDS011;22266;52.340;4.962;2024-02-26T03:58:18;23.00;;;18.00;;
36221;SDS011;22266;52.340;4.962;2024-02-26T04:00:44;20.00;;;17.00;;
36221;SDS011;22266;52.340;4.962;2024-02-26T04:03:13;23.00;;;16.25;;
36221;SDS011;22266;52.340;4.962;2024-02-26T04:05:40;23.25;;;19.25;;
36221;SDS011;22266;52.340;4.962;2024-02-26T04:08:07;23.25;;;19.50;;
36221;SDS011;22266;52.340;4.962;2024-02-26T04:10:33;19.75;;;16.25;;
36221;SDS011;22266;52.340;4.962;2024-02-26T04:13:07;21.25;;;18.25;;
36221;SDS011;22266;52.340;4.962;2024-02-26T04:15:34;17.25;;;16.50;;
36221;SDS011;22266;52.340;4.962;2024-02-26T04:18:01;17.75;;;17.00;;
36221;SDS011;22266;52.340;4.962;2024-02-26T04:20:29;19.00;;;15.25;;
36221;SDS011;22266;52.340;4.962;2024-02-26T04:22:56;17.25;;;16.75;;
36221;SDS011;22266;52.340;4.962;2024-02-26T04:25:22;15.00;;;14.00;;
36221;SDS011;22266;52.340;4.962;2024-02-26T04:27:49;28.00;;;19.25;;
36221;SDS011;22266;52.340;4.962;2024-02-26T04:30:15;11.50;;;9.25;;
36221;SDS011;22266;52.340;4.962;2024-02-26T04:32:43;17.00;;;17.00;;
36221;SDS011;22266;52.340;4.962;2024-02-26T04:35:10;15.00;;;14.75;;
36221;SDS011;22266;52.340;4.962;2024-02-26T04:37:37;19.25;;;17.25;;
36221;SDS011;22266;52.340;4.962;2024-02-26T04:40:04;19.25;;;19.25;;
36221;SDS011;22266;52.340;4.962;2024-02-26T04:42:31;20.75;;;17.50;;
36221;SDS011;22266;52.340;4.962;2024-02-26T04:44:58;21.25;;;19.75;;
36221;SDS011;22266;52.340;4.962;2024-02-26T04:47:25;27.00;;;19.25;;
36221;SDS011;22266;52.340;4.962;2024-02-26T04:49:51;16.00;;;15.75;;
36221;SDS011;22266;52.340;4.962;2024-02-26T04:52:19;24.75;;;24.50;;
36221;SDS011;22266;52.340;4.962;2024-02-26T04:54:46;24.00;;;21.75;;
36221;SDS011;22266;52.340;4.962;2024-02-26T04:57:13;23.00;;;20.25;;
36221;SDS011;22266;52.340;4.962;2024-02-26T04:59:40;25.75;;;23.25;;
36221;SDS011;22266;52.340;4.962;2024-02-26T05:02:08;27.25;;;23.50;;
36221;SDS011;22266;52.340;4.962;2024-02-26T05:04:36;21.00;;;18.00;;
36221;SDS011;22266;52.340;4.962;2024-02-26T05:07:02;27.75;;;20.75;;
36221;SDS011;22266;52.340;4.962;2024-02-26T05:09:30;26.25;;;21.50;;
36221;SDS011;22266;52.340;4.962;2024-02-26T05:11:56;29.75;;;24.00;;
36221;SDS011;22266;52.340;4.962;2024-02-26T05:14:23;27.25;;;24.50;;
36221;SDS011;22266;52.340;4.962;2024-02-26T05:16:50;29.25;;;25.25;;
36221;SDS011;22266;52.340;4.962;2024-02-26T05:19:16;32.00;;;25.25;;
36221;SDS011;22266;52.340;4.962;2024-02-26T05:21:43;20.00;;;17.75;;
36221;SDS011;22266;52.340;4.962;2024-02-26T05:24:10;29.00;;;24.25;;
36221;SDS011;22266;52.340;4.962;2024-02-26T05:26:37;24.50;;;19.75;;
36221;SDS011;22266;52.340;4.962;2024-02-26T05:29:04;19.50;;;19.50;;
36221;SDS011;22266;52.340;4.962;2024-02-26T05:31:30;37.25;;;33.00;;
36221;SDS011;22266;52.340;4.962;2024-02-26T05:33:57;31.25;;;23.00;;
36221;SDS011;22266;52.340;4.962;2024-02-26T05:36:24;26.75;;;24.75;;
36221;SDS011;22266;52.340;4.962;2024-02-26T05:38:51;24.50;;;19.50;;
36221;SDS011;22266;52.340;4.962;2024-02-26T05:41:18;32.50;;;27.50;;
36221;SDS011;22266;52.340;4.962;2024-02-26T05:43:49;29.50;;;28.25;;
36221;SDS011;22266;52.340;4.962;2024-02-26T05:46:17;34.00;;;28.25;;
36221;SDS011;22266;52.340;4.962;2024-02-26T05:48:44;24.00;;;21.00;;
36221;SDS011;22266;52.340;4.962;2024-02-26T05:51:13;24.25;;;21.50;;
36221;SDS011;22266;52.340;4.962;2024-02-26T05:53:40;32.50;;;27.75;;
36221;SDS011;22266;52.340;4.962;2024-02-26T05:56:07;23.25;;;22.00;;
36221;SDS011;22266;52.340;4.962;2024-02-26T05:58:34;28.50;;;22.00;;
36221;SDS011;22266;52.340;4.962;2024-02-26T06:01:00;30.50;;;25.75;;
36221;SDS011;22266;52.340;4.962;2024-02-26T06:03:27;32.75;;;29.00;;
36221;SDS011;22266;52.340;4.962;2024-02-26T06:05:54;29.75;;;27.25;;
36221;SDS011;22266;52.340;4.962;2024-02-26T06:08:21;28.50;;;26.25;;
36221;SDS011;22266;52.340;4.962;2024-02-26T06:10:48;27.25;;;23.75;;
36221;SDS011;22266;52.340;4.962;2024-02-26T06:13:15;27.00;;;20.75;;
36221;SDS011;22266;52.340;4.962;2024-02-26T06:15:41;22.00;;;19.50;;
36221;SDS011;22266;52.340;4.962;2024-02-26T06:18:08;27.50;;;25.00;;
36221;SDS011;22266;52.340;4.962;2024-02-26T06:20:34;22.00;;;21.50;;
36221;SDS011;22266;52.340;4.962;2024-02-26T06:23:01;19.75;;;18.75;;
36221;SDS011;22266;52.340;4.962;2024-02-26T06:25:28;24.25;;;22.50;;
36221;SDS011;22266;52.340;4.962;2024-02-26T06:27:54;21.50;;;19.75;;
36221;SDS011;22266;52.340;4.962;2024-02-26T06:30:21;26.00;;;20.25;;
36221;SDS011;22266;52.340;4.962;2024-02-26T06:32:48;25.50;;;24.00;;
36221;SDS011;22266;52.340;4.962;2024-02-26T06:35:15;26.00;;;22.75;;
36221;SDS011;22266;52.340;4.962;2024-02-26T06:37:41;23.75;;;21.75;;
36221;SDS011;22266;52.340;4.962;2024-02-26T06:40:08;26.00;;;19.75;;
36221;SDS011;22266;52.340;4.962;2024-02-26T06:42:35;16.75;;;14.25;;
36221;SDS011;22266;52.340;4.962;2024-02-26T06:45:02;19.50;;;18.00;;
36221;SDS011;22266;52.340;4.962;2024-02-26T06:47:30;24.00;;;19.00;;
36221;SDS011;22266;52.340;4.962;2024-02-26T06:49:57;22.00;;;17.75;;
36221;SDS011;22266;52.340;4.962;2024-02-26T06:52:24;17.00;;;15.00;;
36221;SDS011;22266;52.340;4.962;2024-02-26T06:54:52;27.50;;;17.75;;
36221;SDS011;22266;52.340;4.962;2024-02-26T06:57:19;16.50;;;15.25;;
36221;SDS011;22266;52.340;4.962;2024-02-26T06:59:46;16.75;;;16.25;;
36221;SDS011;22266;52.340;4.962;2024-02-26T07:02:13;19.50;;;15.50;;
36221;SDS011;22266;52.340;4.962;2024-02-26T07:04:40;16.00;;;15.25;;
36221;SDS011;22266;52.340;4.962;2024-02-26T07:07:07;13.25;;;12.75;;
36221;SDS011;22266;52.340;4.962;2024-02-26T07:09:34;12.25;;;8.75;;
36221;SDS011;22266;52.340;4.962;2024-02-26T07:12:01;11.75;;;11.75;;
36221;SDS011;22266;52.340;4.962;2024-02-26T07:14:28;19.25;;;14.75;;
36221;SDS011;22266;52.340;4.962;2024-02-26T07:16:55;13.00;;;11.00;;
36221;SDS011;22266;52.340;4.962;2024-02-26T07:19:22;14.50;;;13.00;;
36221;SDS011;22266;52.340;4.962;2024-02-26T07:21:49;11.50;;;9.75;;
36221;SDS011;22266;52.340;4.962;2024-02-26T07:24:16;14.75;;;10.25;;
36221;SDS011;22266;52.340;4.962;2024-02-26T07:26:42;13.00;;;10.50;;
36221;SDS011;22266;52.340;4.962;2024-02-26T07:29:09;11.00;;;11.00;;
36221;SDS011;22266;52.340;4.962;2024-02-26T07:31:35;16.00;;;9.00;;
36221;SDS011;22266;52.340;4.962;2024-02-26T07:34:02;13.50;;;11.25;;
36221;SDS011;22266;52.340;4.962;2024-02-26T07:36:29;8.00;;;8.00;;
36221;SDS011;22266;52.340;4.962;2024-02-26T07:38:56;7.50;;;5.50;;
36221;SDS011;22266;52.340;4.962;2024-02-26T07:41:22;9.50;;;6.50;;
36221;SDS011;22266;52.340;4.962;2024-02-26T07:43:49;9.00;;;8.00;;
36221;SDS011;22266;52.340;4.962;2024-02-26T07:46:15;6.25;;;5.75;;
36221;SDS011;22266;52.340;4.962;2024-02-26T07:48:42;8.25;;;7.00;;
36221;SDS011;22266;52.340;4.962;2024-02-26T07:51:11;6.50;;;5.50;;
36221;SDS011;22266;52.340;4.962;2024-02-26T07:53:40;8.00;;;6.25;;
36221;SDS011;22266;52.340;4.962;2024-02-26T07:56:07;12.00;;;7.50;;
36221;SDS011;22266;52.340;4.962;2024-02-26T07:58:34;7.75;;;6.50;;
36221;SDS011;22266;52.340;4.962;2024-02-26T08:01:01;7.25;;;7.00;;
36221;SDS011;22266;52.340;4.962;2024-02-26T08:03:28;7.25;;;7.25;;
36221;SDS011;22266;52.340;4.962;2024-02-26T08:05:54;7.75;;;7.75;;
36221;SDS011;22266;52.340;4.962;2024-02-26T08:08:22;5.75;;;5.75;;
36221;SDS011;22266;52.340;4.962;2024-02-26T08:10:48;7.75;;;5.75;;
36221;SDS011;22266;52.340;4.962;2024-02-26T08:13:15;6.25;;;6.25;;
36221;SDS011;22266;52.340;4.962;2024-02-26T08:15:41;8.75;;;6.25;;
36221;SDS011;22266;52.340;4.962;2024-02-26T08:18:08;6.25;;;4.75;;
36221;SDS011;22266;52.340;4.962;2024-02-26T08:20:35;6.25;;;6.25;;
36221;SDS011;22266;52.340;4.962;2024-02-26T08:23:01;11.25;;;7.50;;
36221;SDS011;22266;52.340;4.962;2024-02-26T08:25:28;8.50;;;7.00;;
36221;SDS011;22266;52.340;4.962;2024-02-26T08:27:55;8.00;;;6.00;;
36221;SDS011;22266;52.340;4.962;2024-02-26T08:30:21;4.00;;;4.00;;
36221;SDS011;22266;52.340;4.962;2024-02-26T08:32:48;7.00;;;6.25;;
36221;SDS011;22266;52.340;4.962;2024-02-26T08:35:18;8.75;;;6.50;;
36221;SDS011;22266;52.340;4.962;2024-02-26T08:37:45;5.50;;;5.00;;
36221;SDS011;22266;52.340;4.962;2024-02-26T08:40:13;8.50;;;6.75;;
36221;SDS011;22266;52.340;4.962;2024-02-26T08:42:40;6.50;;;5.25;;
36221;SDS011;22266;52.340;4.962;2024-02-26T08:45:08;8.00;;;6.50;;
36221;SDS011;22266;52.340;4.962;2024-02-26T08:47:35;7.00;;;5.50;;
36221;SDS011;22266;52.340;4.962;2024-02-26T08:50:01;5.25;;;5.25;;
36221;SDS011;22266;52.340;4.962;2024-02-26T08:52:28;6.00;;;5.00;;
36221;SDS011;22266;52.340;4.962;2024-02-26T08:54:55;5.75;;;4.50;;
36221;SDS011;22266;52.340;4.962;2024-02-26T08:57:21;8.75;;;6.00;;
36221;SDS011;22266;52.340;4.962;2024-02-26T08:59:48;7.25;;;5.50;;
36221;SDS011;22266;52.340;4.962;2024-02-26T09:02:16;8.50;;;8.00;;
36221;SDS011;22266;52.340;4.962;2024-02-26T09:04:42;5.50;;;5.00;;
36221;SDS011;22266;52.340;4.962;2024-02-26T09:07:09;9.50;;;8.00;;
36221;SDS011;22266;52.340;4.962;2024-02-26T09:09:36;5.00;;;5.00;;
36221;SDS011;22266;52.340;4.962;2024-02-26T09:12:03;10.50;;;6.50;;
36221;SDS011;22266;52.340;4.962;2024-02-26T09:14:30;7.00;;;6.00;;
36221;SDS011;22266;52.340;4.962;2024-02-26T09:16:56;9.00;;;6.75;;
36221;SDS011;22266;52.340;4.962;2024-02-26T09:19:24;8.00;;;6.50;;
36221;SDS011;22266;52.340;4.962;2024-02-26T09:21:54;10.00;;;4.50;;
36221;SDS011;22266;52.340;4.962;2024-02-26T09:24:24;6.75;;;6.00;;
36221;SDS011;22266;52.340;4.962;2024-02-26T09:26:51;13.25;;;5.00;;
36221;SDS011;22266;52.340;4.962;2024-02-26T09:29:18;9.00;;;7.75;;
36221;SDS011;22266;52.340;4.962;2024-02-26T09:31:45;5.50;;;5.50;;
36221;SDS011;22266;52.340;4.962;2024-02-26T09:34:13;8.00;;;6.00;;
36221;SDS011;22266;52.340;4.962;2024-02-26T09:36:40;8.75;;;8.75;;
36221;SDS011;22266;52.340;4.962;2024-02-26T09:41:59;7.75;;;7.50;;
36221;SDS011;22266;52.340;4.962;2024-02-26T09:44:30;6.00;;;6.00;;
36221;SDS011;22266;52.340;4.962;2024-02-26T09:47:01;6.50;;;6.50;;
36221;SDS011;22266;52.340;4.962;2024-02-26T09:49:29;10.50;;;7.00;;
36221;SDS011;22266;52.340;4.962;2024-02-26T09:51:56;7.00;;;7.00;;
36221;SDS011;22266;52.340;4.962;2024-02-26T09:54:25;8.50;;;8.00;;
36221;SDS011;22266;52.340;4.962;2024-02-26T09:56:54;7.00;;;5.75;;
36221;SDS011;22266;52.340;4.962;2024-02-26T10:02:08;9.50;;;6.00;;
36221;SDS011;22266;52.340;4.962;2024-02-26T10:04:37;12.00;;;8.25;;
36221;SDS011;22266;52.340;4.962;2024-02-26T10:07:12;5.75;;;5.75;;
36221;SDS011;22266;52.340;4.962;2024-02-26T10:09:40;5.25;;;4.25;;
36221;SDS011;22266;52.340;4.962;2024-02-26T10:12:08;7.25;;;4.25;;
36221;SDS011;22266;52.340;4.962;2024-02-26T10:14:37;5.00;;;5.00;;
36221;SDS011;22266;52.340;4.962;2024-02-26T10:17:06;7.50;;;7.50;;
36221;SDS011;22266;52.340;4.962;2024-02-26T10:19:35;6.00;;;6.00;;
36221;SDS011;22266;52.340;4.962;2024-02-26T10:22:04;8.25;;;8.00;;
36221;SDS011;22266;52.340;4.962;2024-02-26T10:24:32;9.75;;;6.50;;
36221;SDS011;22266;52.340;4.962;2024-02-26T10:27:01;9.75;;;8.75;;
36221;SDS011;22266;52.340;4.962;2024-02-26T10:29:29;6.00;;;6.00;;
36221;SDS011;22266;52.340;4.962;2024-02-26T10:31:55;9.00;;;8.50;;
36221;SDS011;22266;52.340;4.962;2024-02-26T10:34:22;8.00;;;6.50;;
36221;SDS011;22266;52.340;4.962;2024-02-26T10:36:49;6.50;;;5.25;;
36221;SDS011;22266;52.340;4.962;2024-02-26T10:39:20;6.50;;;6.50;;
36221;SDS011;22266;52.340;4.962;2024-02-26T10:41:47;8.75;;;8.50;;
36221;SDS011;22266;52.340;4.962;2024-02-26T10:44:14;6.50;;;6.00;;
36221;SDS011;22266;52.340;4.962;2024-02-26T10:46:44;6.00;;;4.75;;
36221;SDS011;22266;52.340;4.962;2024-02-26T10:49:15;10.50;;;5.75;;
36221;SDS011;22266;52.340;4.962;2024-02-26T10:51:50;5.00;;;4.00;;
36221;SDS011;22266;52.340;4.962;2024-02-26T10:54:21;6.00;;;6.00;;
36221;SDS011;22266;52.340;4.962;2024-02-26T10:56:52;4.75;;;3.75;;
36221;SDS011;22266;52.340;4.962;2024-02-26T10:59:21;6.50;;;5.00;;
36221;SDS011;22266;52.340;4.962;2024-02-26T11:01:48;4.25;;;3.50;;
36221;SDS011;22266;52.340;4.962;2024-02-26T11:04:16;5.00;;;5.00;;
36221;SDS011;22266;52.340;4.962;2024-02-26T11:06:46;5.75;;;4.50;;
36221;SDS011;22266;52.340;4.962;2024-02-26T11:09:16;6.00;;;5.50;;
36221;SDS011;22266;52.340;4.962;2024-02-26T11:11:45;5.50;;;5.25;;
36221;SDS011;22266;52.340;4.962;2024-02-26T11:14:13;4.25;;;4.25;;
36221;SDS011;22266;52.340;4.962;2024-02-26T11:16:40;4.50;;;4.50;;
36221;SDS011;22266;52.340;4.962;2024-02-26T11:19:09;3.50;;;2.00;;
36221;SDS011;22266;52.340;4.962;2024-02-26T11:21:38;6.00;;;5.00;;
36221;SDS011;22266;52.340;4.962;2024-02-26T11:24:07;4.00;;;4.00;;
36221;SDS011;22266;52.340;4.962;2024-02-26T11:26:36;4.75;;;4.75;;
36221;SDS011;22266;52.340;4.962;2024-02-26T11:29:12;4.00;;;4.00;;
36221;SDS011;22266;52.340;4.962;2024-02-26T11:31:42;6.50;;;2.50;;
36221;SDS011;22266;52.340;4.962;2024-02-26T11:34:09;4.00;;;4.00;;
36221;SDS011;22266;52.340;4.962;2024-02-26T11:36:37;3.00;;;3.00;;
36221;SDS011;22266;52.340;4.962;2024-02-26T11:39:04;2.00;;;2.00;;
36221;SDS011;22266;52.340;4.962;2024-02-26T11:41:31;2.00;;;2.00;;
36221;SDS011;22266;52.340;4.962;2024-02-26T11:43:59;5.00;;;4.50;;
36221;SDS011;22266;52.340;4.962;2024-02-26T11:46:31;5.75;;;4.00;;
36221;SDS011;22266;52.340;4.962;2024-02-26T11:48:59;1.00;;;1.00;;
36221;SDS011;22266;52.340;4.962;2024-02-26T11:51:50;3.50;;;3.50;;
36221;SDS011;22266;52.340;4.962;2024-02-26T11:57:19;2.00;;;1.75;;
36221;SDS011;22266;52.340;4.962;2024-02-26T11:59:46;4.25;;;4.00;;
36221;SDS011;22266;52.340;4.962;2024-02-26T12:07:47;2.00;;;1.00;;
36221;SDS011;22266;52.340;4.962;2024-02-26T12:10:35;3.75;;;1.50;;
36221;SDS011;22266;52.340;4.962;2024-02-26T12:13:08;1.00;;;1.00;;
36221;SDS011;22266;52.340;4.962;2024-02-26T12:18:20;1.50;;;1.50;;
36221;SDS011;22266;52.340;4.962;2024-02-26T12:21:01;1.75;;;1.75;;
36221;SDS011;22266;52.340;4.962;2024-02-26T12:23:29;3.50;;;3.50;;
36221;SDS011;22266;52.340;4.962;2024-02-26T12:25:59;4.50;;;4.00;;
36221;SDS011;22266;52.340;4.962;2024-02-26T12:28:29;4.00;;;4.00;;
36221;SDS011;22266;52.340;4.962;2024-02-26T12:30:56;4.00;;;1.50;;
36221;SDS011;22266;52.340;4.962;2024-02-26T12:33:26;5.25;;;2.50;;
36221;SDS011;22266;52.340;4.962;2024-02-26T12:35:54;2.00;;;2.00;;
36221;SDS011;22266;52.340;4.962;2024-02-26T12:38:20;4.00;;;4.00;;
36221;SDS011;22266;52.340;4.962;2024-02-26T12:40:47;5.25;;;4.50;;
36221;SDS011;22266;52.340;4.962;2024-02-26T12:43:15;3.25;;;2.00;;
36221;SDS011;22266;52.340;4.962;2024-02-26T12:45:42;3.00;;;3.00;;
36221;SDS011;22266;52.340;4.962;2024-02-26T12:48:12;3.25;;;2.75;;
36221;SDS011;22266;52.340;4.962;2024-02-26T12:50:40;2.75;;;2.75;;
36221;SDS011;22266;52.340;4.962;2024-02-26T12:53:11;4.50;;;3.50;;
36221;SDS011;22266;52.340;4.962;2024-02-26T12:55:38;7.75;;;4.25;;
36221;SDS011;22266;52.340;4.962;2024-02-26T12:58:06;4.00;;;4.00;;
36221;SDS011;22266;52.340;4.962;2024-02-26T13:00:33;2.00;;;2.00;;
36221;SDS011;22266;52.340;4.962;2024-02-26T13:03:01;2.25;;;2.25;;
36221;SDS011;22266;52.340;4.962;2024-02-26T13:05:28;4.25;;;3.25;;
36221;SDS011;22266;52.340;4.962;2024-02-26T13:07:55;6.25;;;3.00;;
36221;SDS011;22266;52.340;4.962;2024-02-26T13:10:22;2.00;;;2.00;;
36221;SDS011;22266;52.340;4.962;2024-02-26T13:12:49;1.25;;;1.25;;
36221;SDS011;22266;52.340;4.962;2024-02-26T13:15:17;3.50;;;3.50;;
36221;SDS011;22266;52.340;4.962;2024-02-26T13:17:45;2.25;;;2.25;;
36221;SDS011;22266;52.340;4.962;2024-02-26T13:20:13;2.75;;;2.00;;
36221;SDS011;22266;52.340;4.962;2024-02-26T13:22:50;3.25;;;3.25;;
36221;SDS011;22266;52.340;4.962;2024-02-26T13:25:20;4.25;;;2.50;;
36221;SDS011;22266;52.340;4.962;2024-02-26T13:27:47;4.25;;;2.50;;
36221;SDS011;22266;52.340;4.962;2024-02-26T13:30:13;1.75;;;1.75;;
36221;SDS011;22266;52.340;4.962;2024-02-26T13:32:40;4.00;;;2.00;;
36221;SDS011;22266;52.340;4.962;2024-02-26T13:35:08;4.75;;;2.75;;
36221;SDS011;22266;52.340;4.962;2024-02-26T13:37:36;3.25;;;2.00;;
36221;SDS011;22266;52.340;4.962;2024-02-26T13:40:06;3.00;;;3.00;;
36221;SDS011;22266;52.340;4.962;2024-02-26T13:42:38;6.50;;;5.00;;
36221;SDS011;22266;52.340;4.962;2024-02-26T13:45:05;9.00;;;5.00;;
36221;SDS011;22266;52.340;4.962;2024-02-26T13:47:33;4.50;;;4.50;;
36221;SDS011;22266;52.340;4.962;2024-02-26T13:50:01;5.50;;;4.00;;
36221;SDS011;22266;52.340;4.962;2024-02-26T13:52:28;4.00;;;2.50;;
36221;SDS011;22266;52.340;4.962;2024-02-26T13:54:58;3.00;;;2.25;;
36221;SDS011;22266;52.340;4.962;2024-02-26T13:57:25;8.25;;;6.50;;
36221;SDS011;22266;52.340;4.962;2024-02-26T13:59:52;5.00;;;4.50;;
36221;SDS011;22266;52.340;4.962;2024-02-26T14:02:19;7.00;;;5.75;;
36221;SDS011;22266;52.340;4.962;2024-02-26T14:04:46;6.25;;;5.00;;
36221;SDS011;22266;52.340;4.962;2024-02-26T14:07:12;7.00;;;6.00;;
36221;SDS011;22266;52.340;4.962;2024-02-26T14:09:40;6.50;;;5.00;;
36221;SDS011;22266;52.340;4.962;2024-02-26T14:12:15;7.75;;;6.00;;
36221;SDS011;22266;52.340;4.962;2024-02-26T14:14:43;8.00;;;8.00;;
36221;SDS011;22266;52.340;4.962;2024-02-26T14:17:11;4.00;;;4.00;;
36221;SDS011;22266;52.340;4.962;2024-02-26T14:19:39;3.00;;;3.00;;
36221;SDS011;22266;52.340;4.962;2024-02-26T14:22:12;5.25;;;5.00;;
36221;SDS011;22266;52.340;4.962;2024-02-26T14:24:39;10.50;;;6.00;;
36221;SDS011;22266;52.340;4.962;2024-02-26T14:27:09;5.00;;;5.00;;
36221;SDS011;22266;52.340;4.962;2024-02-26T14:29:41;7.00;;;7.00;;
36221;SDS011;22266;52.340;4.962;2024-02-26T14:32:09;5.00;;;5.00;;
36221;SDS011;22266;52.340;4.962;2024-02-26T14:34:36;6.25;;;6.25;;
36221;SDS011;22266;52.340;4.962;2024-02-26T14:37:03;6.00;;;4.50;;
36221;SDS011;22266;52.340;4.962;2024-02-26T14:39:31;6.75;;;6.00;;
36221;SDS011;22266;52.340;4.962;2024-02-26T14:41:58;6.00;;;5.00;;
36221;SDS011;22266;52.340;4.962;2024-02-26T14:44:25;5.75;;;3.00;;
36221;SDS011;22266;52.340;4.962;2024-02-26T14:46:52;6.00;;;6.00;;
36221;SDS011;22266;52.340;4.962;2024-02-26T14:49:19;5.50;;;5.50;;
36221;SDS011;22266;52.340;4.962;2024-02-26T14:51:46;4.50;;;4.50;;